sensor_id;sensor_type;location;lat;lon;timestamp;temperature;humidity
18823;DHT22;9540;51.550;7.980;2022-07-09T00:01:23;15.50;99.90
18823;DHT22;9540;51.550;7.980;2022-07-09T00:03:50;15.50;99.90
18823;DHT22;9540;51.550;7.980;2022-07-09T00:06:18;15.50;99.90
18823;DHT22;9540;51.550;7.980;2022-07-09T00:08:45;15.60;99.90
18823;DHT22;9540;51.550;7.980;2022-07-09T00:11:12;15.60;99.90
18823;DHT22;9540;51.550;7.980;2022-07-09T00:13:39;15.60;99.90
18823;DHT22;9540;51.550;7.980;2022-07-09T00:16:06;15.60;99.90
18823;DHT22;9540;51.550;7.980;2022-07-09T00:18:35;15.70;99.90
18823;DHT22;9540;51.550;7.980;2022-07-09T00:21:02;15.70;99.90
18823;DHT22;9540;51.550;7.980;2022-07-09T00:23:29;15.70;99.90
18823;DHT22;9540;51.550;7.980;2022-07-09T00:25:56;15.70;99.90
18823;DHT22;9540;51.550;7.980;2022-07-09T00:28:23;15.60;99.90
18823;DHT22;9540;51.550;7.980;2022-07-09T00:30:50;15.60;99.90
18823;DHT22;9540;51.550;7.980;2022-07-09T00:33:17;15.70;99.90
18823;DHT22;9540;51.550;7.980;2022-07-09T00:35:46;15.70;99.90
18823;DHT22;9540;51.550;7.980;2022-07-09T00:38:13;15.60;99.90
18823;DHT22;9540;51.550;7.980;2022-07-09T00:40:40;15.60;99.90
18823;DHT22;9540;51.550;7.980;2022-07-09T00:43:15;15.60;99.90
18823;DHT22;9540;51.550;7.980;2022-07-09T00:45:43;15.60;99.90
18823;DHT22;9540;51.550;7.980;2022-07-09T00:48:10;15.50;99.90
18823;DHT22;9540;51.550;7.980;2022-07-09T00:50:37;15.50;99.90
18823;DHT22;9540;51.550;7.980;2022-07-09T00:53:07;15.50;99.90
18823;DHT22;9540;51.550;7.980;2022-07-09T00:55:34;15.50;99.90
18823;DHT22;9540;51.550;7.980;2022-07-09T00:58:02;15.40;99.90
18823;DHT22;9540;51.550;7.980;2022-07-09T01:00:29;15.40;99.90
18823;DHT22;9540;51.550;7.980;2022-07-09T01:02:56;15.40;99.90
18823;DHT22;9540;51.550;7.980;2022-07-09T01:05:23;15.40;99.90
18823;DHT22;9540;51.550;7.980;2022-07-09T01:07:50;15.40;99.90
18823;DHT22;9540;51.550;7.980;2022-07-09T01:10:19;15.40;99.90
18823;DHT22;9540;51.550;7.980;2022-07-09T01:12:47;15.40;99.90
18823;DHT22;9540;51.550;7.980;2022-07-09T01:15:14;15.50;99.90
18823;DHT22;9540;51.550;7.980;2022-07-09T01:17:41;15.50;99.90
18823;DHT22;9540;51.550;7.980;2022-07-09T01:20:09;15.60;99.90
18823;DHT22;9540;51.550;7.980;2022-07-09T01:22:37;15.60;99.90
18823;DHT22;9540;51.550;7.980;2022-07-09T01:25:07;15.70;99.90
18823;DHT22;9540;51.550;7.980;2022-07-09T01:27:35;15.70;99.90
18823;DHT22;9540;51.550;7.980;2022-07-09T01:30:03;15.80;99.90
18823;DHT22;9540;51.550;7.980;2022-07-09T01:32:30;15.80;99.90
18823;DHT22;9540;51.550;7.980;2022-07-09T01:34:57;15.90;99.90
18823;DHT22;9540;51.550;7.980;2022-07-09T01:37:24;15.90;99.90
18823;DHT22;9540;51.550;7.980;2022-07-09T01:39:53;16.00;99.90
18823;DHT22;9540;51.550;7.980;2022-07-09T01:42:20;16.00;99.90
18823;DHT22;9540;51.550;7.980;2022-07-09T01:44:47;16.10;99.90
18823;DHT22;9540;51.550;7.980;2022-07-09T01:47:15;16.10;99.90
18823;DHT22;9540;51.550;7.980;2022-07-09T01:49:42;16.10;99.90
18823;DHT22;9540;51.550;7.980;2022-07-09T01:52:09;16.20;99.90
18823;DHT22;9540;51.550;7.980;2022-07-09T01:54:36;16.20;99.90
18823;DHT22;9540;51.550;7.980;2022-07-09T01:57:05;16.20;99.90
18823;DHT22;9540;51.550;7.980;2022-07-09T01:59:32;16.20;99.90
18823;DHT22;9540;51.550;7.980;2022-07-09T02:01:59;16.20;99.90
18823;DHT22;9540;51.550;7.980;2022-07-09T02:04:27;16.20;99.90
18823;DHT22;9540;51.550;7.980;2022-07-09T02:06:54;16.20;99.90
18823;DHT22;9540;51.550;7.980;2022-07-09T02:09:22;16.20;99.90
18823;DHT22;9540;51.550;7.980;2022-07-09T02:11:49;16.20;99.90
18823;DHT22;9540;51.550;7.980;2022-07-09T02:14:17;16.20;99.90
18823;DHT22;9540;51.550;7.980;2022-07-09T02:16:44;16.10;99.90
18823;DHT22;9540;51.550;7.980;2022-07-09T02:19:11;16.10;99.90
18823;DHT22;9540;51.550;7.980;2022-07-09T02:21:38;16.10;99.90
18823;DHT22;9540;51.550;7.980;2022-07-09T02:24:06;16.00;99.90
18823;DHT22;9540;51.550;7.980;2022-07-09T02:26:33;16.00;99.90
18823;DHT22;9540;51.550;7.980;2022-07-09T02:29:00;15.90;99.90
18823;DHT22;9540;51.550;7.980;2022-07-09T02:31:29;15.90;99.90
18823;DHT22;9540;51.550;7.980;2022-07-09T02:33:56;15.90;99.90
18823;DHT22;9540;51.550;7.980;2022-07-09T02:36:23;15.80;99.90
18823;DHT22;9540;51.550;7.980;2022-07-09T02:38:50;15.80;99.90
18823;DHT22;9540;51.550;7.980;2022-07-09T02:41:17;15.80;99.90
18823;DHT22;9540;51.550;7.980;2022-07-09T02:43:45;15.80;99.90
18823;DHT22;9540;51.550;7.980;2022-07-09T02:46:12;15.80;99.90
18823;DHT22;9540;51.550;7.980;2022-07-09T02:48:40;15.80;99.90
18823;DHT22;9540;51.550;7.980;2022-07-09T02:51:07;15.80;99.90
18823;DHT22;9540;51.550;7.980;2022-07-09T02:53:34;15.80;99.90
18823;DHT22;9540;51.550;7.980;2022-07-09T02:56:01;15.80;99.90
18823;DHT22;9540;51.550;7.980;2022-07-09T02:58:28;15.80;99.90
18823;DHT22;9540;51.550;7.980;2022-07-09T03:00:55;15.80;99.90
18823;DHT22;9540;51.550;7.980;2022-07-09T03:03:22;15.80;99.90
18823;DHT22;9540;51.550;7.980;2022-07-09T03:05:51;15.80;99.90
18823;DHT22;9540;51.550;7.980;2022-07-09T03:08:18;15.70;99.90
18823;DHT22;9540;51.550;7.980;2022-07-09T03:10:47;15.70;99.90
18823;DHT22;9540;51.550;7.980;2022-07-09T03:13:15;15.70;99.90
18823;DHT22;9540;51.550;7.980;2022-07-09T03:15:42;15.70;99.90
18823;DHT22;9540;51.550;7.980;2022-07-09T03:18:09;15.70;99.90
18823;DHT22;9540;51.550;7.980;2022-07-09T03:20:36;15.70;99.90
18823;DHT22;9540;51.550;7.980;2022-07-09T03:23:06;15.80;99.90
18823;DHT22;9540;51.550;7.980;2022-07-09T03:25:33;15.80;99.90
18823;DHT22;9540;51.550;7.980;2022-07-09T03:28:00;15.80;99.90
18823;DHT22;9540;51.550;7.980;2022-07-09T03:30:27;15.80;99.90
18823;DHT22;9540;51.550;7.980;2022-07-09T03:32:54;15.80;99.90
18823;DHT22;9540;51.550;7.980;2022-07-09T03:35:22;15.80;99.90
18823;DHT22;9540;51.550;7.980;2022-07-09T03:37:49;15.80;99.90
18823;DHT22;9540;51.550;7.980;2022-07-09T03:40:17;15.80;99.90
18823;DHT22;9540;51.550;7.980;2022-07-09T03:42:44;15.80;99.90
18823;DHT22;9540;51.550;7.980;2022-07-09T03:45:11;15.80;99.90
18823;DHT22;9540;51.550;7.980;2022-07-09T03:47:38;15.80;99.90
18823;DHT22;9540;51.550;7.980;2022-07-09T03:50:06;15.80;99.90
18823;DHT22;9540;51.550;7.980;2022-07-09T03:52:34;15.80;99.90
18823;DHT22;9540;51.550;7.980;2022-07-09T03:55:01;15.80;99.90
18823;DHT22;9540;51.550;7.980;2022-07-09T03:57:29;15.90;99.90
18823;DHT22;9540;51.550;7.980;2022-07-09T03:59:56;15.90;99.90
18823;DHT22;9540;51.550;7.980;2022-07-09T04:02:24;15.90;99.90
18823;DHT22;9540;51.550;7.980;2022-07-09T04:04:51;15.90;99.90
18823;DHT22;9540;51.550;7.980;2022-07-09T04:07:22;16.00;99.90
18823;DHT22;9540;51.550;7.980;2022-07-09T04:09:52;16.00;99.90
18823;DHT22;9540;51.550;7.980;2022-07-09T04:12:19;16.00;99.90
18823;DHT22;9540;51.550;7.980;2022-07-09T04:14:47;16.00;99.90
18823;DHT22;9540;51.550;7.980;2022-07-09T04:17:14;16.00;99.90
18823;DHT22;9540;51.550;7.980;2022-07-09T04:19:41;16.00;99.90
18823;DHT22;9540;51.550;7.980;2022-07-09T04:22:08;16.00;99.90
18823;DHT22;9540;51.550;7.980;2022-07-09T04:24:35;16.10;99.90
18823;DHT22;9540;51.550;7.980;2022-07-09T04:27:03;16.10;99.90
18823;DHT22;9540;51.550;7.980;2022-07-09T04:29:30;16.10;99.90
18823;DHT22;9540;51.550;7.980;2022-07-09T04:31:58;16.10;99.90
18823;DHT22;9540;51.550;7.980;2022-07-09T04:34:25;16.20;99.90
18823;DHT22;9540;51.550;7.980;2022-07-09T04:36:52;16.20;99.90
18823;DHT22;9540;51.550;7.980;2022-07-09T04:39:19;16.20;99.90
18823;DHT22;9540;51.550;7.980;2022-07-09T04:41:48;16.20;99.90
18823;DHT22;9540;51.550;7.980;2022-07-09T04:44:15;16.30;99.90
18823;DHT22;9540;51.550;7.980;2022-07-09T04:46:42;16.30;99.90
18823;DHT22;9540;51.550;7.980;2022-07-09T04:49:11;16.40;99.90
18823;DHT22;9540;51.550;7.980;2022-07-09T04:51:38;16.40;99.90
18823;DHT22;9540;51.550;7.980;2022-07-09T04:54:05;16.50;99.90
18823;DHT22;9540;51.550;7.980;2022-07-09T04:56:32;16.50;99.90
18823;DHT22;9540;51.550;7.980;2022-07-09T04:59:00;16.60;99.90
18823;DHT22;9540;51.550;7.980;2022-07-09T05:01:28;16.60;99.90
18823;DHT22;9540;51.550;7.980;2022-07-09T05:03:55;16.60;99.90
18823;DHT22;9540;51.550;7.980;2022-07-09T05:06:24;16.70;99.90
18823;DHT22;9540;51.550;7.980;2022-07-09T05:08:51;16.70;99.90
18823;DHT22;9540;51.550;7.980;2022-07-09T05:11:18;16.60;99.90
18823;DHT22;9540;51.550;7.980;2022-07-09T05:13:46;16.70;99.90
18823;DHT22;9540;51.550;7.980;2022-07-09T05:16:13;16.70;99.90
18823;DHT22;9540;51.550;7.980;2022-07-09T05:18:40;16.70;99.90
18823;DHT22;9540;51.550;7.980;2022-07-09T05:21:07;16.70;99.90
18823;DHT22;9540;51.550;7.980;2022-07-09T05:23:35;16.90;99.90
18823;DHT22;9540;51.550;7.980;2022-07-09T05:26:03;16.90;99.90
18823;DHT22;9540;51.550;7.980;2022-07-09T05:28:30;17.00;99.90
18823;DHT22;9540;51.550;7.980;2022-07-09T05:30:57;17.00;99.90
18823;DHT22;9540;51.550;7.980;2022-07-09T05:33:24;17.00;99.90
18823;DHT22;9540;51.550;7.980;2022-07-09T05:35:51;17.10;99.90
18823;DHT22;9540;51.550;7.980;2022-07-09T05:38:18;17.20;99.90
18823;DHT22;9540;51.550;7.980;2022-07-09T05:40:48;17.30;99.90
18823;DHT22;9540;51.550;7.980;2022-07-09T05:43:16;17.30;99.90
18823;DHT22;9540;51.550;7.980;2022-07-09T05:45:43;17.40;99.90
18823;DHT22;9540;51.550;7.980;2022-07-09T05:48:10;17.40;99.90
18823;DHT22;9540;51.550;7.980;2022-07-09T05:50:37;17.30;99.90
18823;DHT22;9540;51.550;7.980;2022-07-09T05:53:04;17.20;99.90
18823;DHT22;9540;51.550;7.980;2022-07-09T05:55:31;17.10;99.90
18823;DHT22;9540;51.550;7.980;2022-07-09T05:58:00;17.00;99.90
18823;DHT22;9540;51.550;7.980;2022-07-09T06:00:27;17.00;99.90
18823;DHT22;9540;51.550;7.980;2022-07-09T06:02:54;17.00;99.90
18823;DHT22;9540;51.550;7.980;2022-07-09T06:05:21;17.00;99.90
18823;DHT22;9540;51.550;7.980;2022-07-09T06:07:49;17.00;99.90
18823;DHT22;9540;51.550;7.980;2022-07-09T06:10:16;17.00;99.90
18823;DHT22;9540;51.550;7.980;2022-07-09T06:12:43;17.10;99.90
18823;DHT22;9540;51.550;7.980;2022-07-09T06:15:12;17.20;99.90
18823;DHT22;9540;51.550;7.980;2022-07-09T06:17:39;17.30;99.90
18823;DHT22;9540;51.550;7.980;2022-07-09T06:20:07;17.30;99.90
18823;DHT22;9540;51.550;7.980;2022-07-09T06:22:34;17.30;99.90
18823;DHT22;9540;51.550;7.980;2022-07-09T06:25:01;17.30;99.90
18823;DHT22;9540;51.550;7.980;2022-07-09T06:27:28;17.30;99.90
18823;DHT22;9540;51.550;7.980;2022-07-09T06:29:55;17.50;99.90
18823;DHT22;9540;51.550;7.980;2022-07-09T06:32:24;17.60;99.90
18823;DHT22;9540;51.550;7.980;2022-07-09T06:34:51;17.70;99.90
18823;DHT22;9540;51.550;7.980;2022-07-09T06:37:18;17.70;99.90
18823;DHT22;9540;51.550;7.980;2022-07-09T06:39:45;17.70;99.90
18823;DHT22;9540;51.550;7.980;2022-07-09T06:42:16;17.70;99.90
18823;DHT22;9540;51.550;7.980;2022-07-09T06:44:43;17.80;99.90
18823;DHT22;9540;51.550;7.980;2022-07-09T06:47:11;17.90;99.90
18823;DHT22;9540;51.550;7.980;2022-07-09T06:49:39;17.90;99.90
18823;DHT22;9540;51.550;7.980;2022-07-09T06:52:07;17.80;99.90
18823;DHT22;9540;51.550;7.980;2022-07-09T06:54:35;17.90;99.90
18823;DHT22;9540;51.550;7.980;2022-07-09T06:57:02;17.90;99.90
18823;DHT22;9540;51.550;7.980;2022-07-09T06:59:29;18.00;99.90
18823;DHT22;9540;51.550;7.980;2022-07-09T07:01:56;18.10;99.90
18823;DHT22;9540;51.550;7.980;2022-07-09T07:04:23;18.10;99.90
18823;DHT22;9540;51.550;7.980;2022-07-09T07:06:52;18.10;99.90
18823;DHT22;9540;51.550;7.980;2022-07-09T07:09:19;18.10;99.90
18823;DHT22;9540;51.550;7.980;2022-07-09T07:11:48;18.20;99.90
18823;DHT22;9540;51.550;7.980;2022-07-09T07:14:15;18.10;99.90
18823;DHT22;9540;51.550;7.980;2022-07-09T07:16:42;18.10;99.90
18823;DHT22;9540;51.550;7.980;2022-07-09T07:19:09;18.10;99.90
18823;DHT22;9540;51.550;7.980;2022-07-09T07:21:37;18.10;99.90
18823;DHT22;9540;51.550;7.980;2022-07-09T07:24:06;18.20;99.90
18823;DHT22;9540;51.550;7.980;2022-07-09T07:26:33;18.30;99.90
18823;DHT22;9540;51.550;7.980;2022-07-09T07:29:00;18.40;99.90
18823;DHT22;9540;51.550;7.980;2022-07-09T07:31:27;18.40;99.90
18823;DHT22;9540;51.550;7.980;2022-07-09T07:33:54;18.50;99.90
18823;DHT22;9540;51.550;7.980;2022-07-09T07:36:21;18.60;99.90
18823;DHT22;9540;51.550;7.980;2022-07-09T07:38:49;18.70;99.90
18823;DHT22;9540;51.550;7.980;2022-07-09T07:41:17;18.90;99.90
18823;DHT22;9540;51.550;7.980;2022-07-09T07:43:44;19.00;99.90
18823;DHT22;9540;51.550;7.980;2022-07-09T07:46:11;19.00;99.90
18823;DHT22;9540;51.550;7.980;2022-07-09T07:48:39;19.00;99.90
18823;DHT22;9540;51.550;7.980;2022-07-09T07:51:07;19.10;99.90
18823;DHT22;9540;51.550;7.980;2022-07-09T07:53:35;19.00;99.90
18823;DHT22;9540;51.550;7.980;2022-07-09T07:56:02;19.00;99.90
18823;DHT22;9540;51.550;7.980;2022-07-09T07:58:31;19.10;99.90
18823;DHT22;9540;51.550;7.980;2022-07-09T08:00:59;19.30;99.90
18823;DHT22;9540;51.550;7.980;2022-07-09T08:03:26;19.50;99.90
18823;DHT22;9540;51.550;7.980;2022-07-09T08:05:53;19.40;99.90
18823;DHT22;9540;51.550;7.980;2022-07-09T08:08:20;19.50;99.90
18823;DHT22;9540;51.550;7.980;2022-07-09T08:10:48;19.70;99.90
18823;DHT22;9540;51.550;7.980;2022-07-09T08:13:15;19.90;99.90
18823;DHT22;9540;51.550;7.980;2022-07-09T08:15:44;20.20;99.90
18823;DHT22;9540;51.550;7.980;2022-07-09T08:18:11;20.50;99.90
18823;DHT22;9540;51.550;7.980;2022-07-09T08:20:40;20.60;99.90
18823;DHT22;9540;51.550;7.980;2022-07-09T08:23:07;20.50;99.90
18823;DHT22;9540;51.550;7.980;2022-07-09T08:25:34;20.50;99.90
18823;DHT22;9540;51.550;7.980;2022-07-09T08:28:02;20.40;99.90
18823;DHT22;9540;51.550;7.980;2022-07-09T08:30:29;20.30;99.90
18823;DHT22;9540;51.550;7.980;2022-07-09T08:32:57;20.30;99.90
18823;DHT22;9540;51.550;7.980;2022-07-09T08:35:24;20.20;99.90
18823;DHT22;9540;51.550;7.980;2022-07-09T08:37:52;20.30;99.90
18823;DHT22;9540;51.550;7.980;2022-07-09T08:40:19;20.40;99.90
18823;DHT22;9540;51.550;7.980;2022-07-09T08:42:49;20.40;99.90
18823;DHT22;9540;51.550;7.980;2022-07-09T08:45:17;20.30;99.90
18823;DHT22;9540;51.550;7.980;2022-07-09T08:47:45;20.30;99.90
18823;DHT22;9540;51.550;7.980;2022-07-09T08:50:13;20.40;99.90
18823;DHT22;9540;51.550;7.980;2022-07-09T08:52:42;20.60;99.90
18823;DHT22;9540;51.550;7.980;2022-07-09T08:55:09;20.90;99.90
18823;DHT22;9540;51.550;7.980;2022-07-09T08:57:37;21.30;99.90
18823;DHT22;9540;51.550;7.980;2022-07-09T09:00:06;21.50;99.90
18823;DHT22;9540;51.550;7.980;2022-07-09T09:02:36;21.70;99.90
18823;DHT22;9540;51.550;7.980;2022-07-09T09:05:14;21.40;99.90
18823;DHT22;9540;51.550;7.980;2022-07-09T09:07:41;21.40;99.90
18823;DHT22;9540;51.550;7.980;2022-07-09T09:10:19;21.30;99.90
18823;DHT22;9540;51.550;7.980;2022-07-09T09:12:47;21.20;99.90
18823;DHT22;9540;51.550;7.980;2022-07-09T09:15:17;21.10;99.90
18823;DHT22;9540;51.550;7.980;2022-07-09T09:17:44;21.00;99.90
18823;DHT22;9540;51.550;7.980;2022-07-09T09:20:14;21.10;99.90
18823;DHT22;9540;51.550;7.980;2022-07-09T09:22:45;21.50;99.90
18823;DHT22;9540;51.550;7.980;2022-07-09T09:25:16;21.70;99.90
18823;DHT22;9540;51.550;7.980;2022-07-09T09:27:53;21.80;99.90
18823;DHT22;9540;51.550;7.980;2022-07-09T09:30:21;21.90;99.90
18823;DHT22;9540;51.550;7.980;2022-07-09T09:32:55;21.40;99.90
18823;DHT22;9540;51.550;7.980;2022-07-09T09:35:25;21.30;99.90
18823;DHT22;9540;51.550;7.980;2022-07-09T09:37:52;21.30;99.90
18823;DHT22;9540;51.550;7.980;2022-07-09T09:40:20;21.50;99.90
18823;DHT22;9540;51.550;7.980;2022-07-09T09:42:48;21.70;99.90
18823;DHT22;9540;51.550;7.980;2022-07-09T09:45:16;21.70;99.90
18823;DHT22;9540;51.550;7.980;2022-07-09T09:47:46;21.70;99.90
18823;DHT22;9540;51.550;7.980;2022-07-09T09:50:17;21.90;99.90
18823;DHT22;9540;51.550;7.980;2022-07-09T09:52:47;22.00;99.90
18823;DHT22;9540;51.550;7.980;2022-07-09T09:55:17;22.10;99.90
18823;DHT22;9540;51.550;7.980;2022-07-09T09:57:44;22.10;99.90
18823;DHT22;9540;51.550;7.980;2022-07-09T10:00:13;21.90;99.90
18823;DHT22;9540;51.550;7.980;2022-07-09T10:02:43;21.70;99.90
18823;DHT22;9540;51.550;7.980;2022-07-09T10:05:11;21.50;99.90
18823;DHT22;9540;51.550;7.980;2022-07-09T10:07:40;21.50;99.90
18823;DHT22;9540;51.550;7.980;2022-07-09T10:10:16;21.60;99.90
18823;DHT22;9540;51.550;7.980;2022-07-09T10:12:44;21.80;99.90
18823;DHT22;9540;51.550;7.980;2022-07-09T10:15:20;21.70;99.90
18823;DHT22;9540;51.550;7.980;2022-07-09T10:17:48;21.50;99.90
18823;DHT22;9540;51.550;7.980;2022-07-09T10:20:15;21.50;99.90
18823;DHT22;9540;51.550;7.980;2022-07-09T10:22:44;21.60;99.90
18823;DHT22;9540;51.550;7.980;2022-07-09T10:25:22;21.60;99.90
18823;DHT22;9540;51.550;7.980;2022-07-09T10:27:49;21.60;99.90
18823;DHT22;9540;51.550;7.980;2022-07-09T10:30:27;21.60;99.90
18823;DHT22;9540;51.550;7.980;2022-07-09T10:33:05;21.80;99.90
18823;DHT22;9540;51.550;7.980;2022-07-09T10:35:40;21.90;99.90
18823;DHT22;9540;51.550;7.980;2022-07-09T10:38:07;21.70;99.90
18823;DHT22;9540;51.550;7.980;2022-07-09T10:40:40;21.80;99.90
18823;DHT22;9540;51.550;7.980;2022-07-09T10:43:08;21.80;99.90
18823;DHT22;9540;51.550;7.980;2022-07-09T10:45:39;21.60;99.90
18823;DHT22;9540;51.550;7.980;2022-07-09T10:48:08;21.70;99.90
18823;DHT22;9540;51.550;7.980;2022-07-09T10:50:37;21.90;99.90
18823;DHT22;9540;51.550;7.980;2022-07-09T10:53:05;21.90;99.90
18823;DHT22;9540;51.550;7.980;2022-07-09T10:55:32;22.00;99.90
18823;DHT22;9540;51.550;7.980;2022-07-09T10:58:01;21.90;99.90
18823;DHT22;9540;51.550;7.980;2022-07-09T11:00:34;21.90;99.90
18823;DHT22;9540;51.550;7.980;2022-07-09T11:03:02;21.90;99.90
18823;DHT22;9540;51.550;7.980;2022-07-09T11:05:31;21.90;99.90
18823;DHT22;9540;51.550;7.980;2022-07-09T11:08:03;21.90;99.90
18823;DHT22;9540;51.550;7.980;2022-07-09T11:10:31;21.80;99.90
18823;DHT22;9540;51.550;7.980;2022-07-09T11:13:00;21.90;99.90
18823;DHT22;9540;51.550;7.980;2022-07-09T11:15:29;21.90;99.90
18823;DHT22;9540;51.550;7.980;2022-07-09T11:18:00;21.80;99.90
18823;DHT22;9540;51.550;7.980;2022-07-09T11:20:28;21.90;99.90
18823;DHT22;9540;51.550;7.980;2022-07-09T11:22:55;22.00;99.90
18823;DHT22;9540;51.550;7.980;2022-07-09T11:25:24;21.90;99.90
18823;DHT22;9540;51.550;7.980;2022-07-09T11:27:54;21.90;99.90
18823;DHT22;9540;51.550;7.980;2022-07-09T11:30:22;22.00;99.90
18823;DHT22;9540;51.550;7.980;2022-07-09T11:32:50;22.00;99.90
18823;DHT22;9540;51.550;7.980;2022-07-09T11:35:27;22.30;99.90
18823;DHT22;9540;51.550;7.980;2022-07-09T11:37:55;22.50;99.90
18823;DHT22;9540;51.550;7.980;2022-07-09T11:40:22;22.70;99.90
18823;DHT22;9540;51.550;7.980;2022-07-09T11:42:50;22.70;99.90
18823;DHT22;9540;51.550;7.980;2022-07-09T11:45:22;22.80;99.90
18823;DHT22;9540;51.550;7.980;2022-07-09T11:48:00;22.80;99.90
18823;DHT22;9540;51.550;7.980;2022-07-09T11:50:28;22.80;99.90
18823;DHT22;9540;51.550;7.980;2022-07-09T11:52:55;22.90;99.90
18823;DHT22;9540;51.550;7.980;2022-07-09T11:55:29;22.90;99.90
18823;DHT22;9540;51.550;7.980;2022-07-09T11:57:58;22.90;99.90
18823;DHT22;9540;51.550;7.980;2022-07-09T12:00:28;23.00;99.90
18823;DHT22;9540;51.550;7.980;2022-07-09T12:02:56;23.30;99.90
18823;DHT22;9540;51.550;7.980;2022-07-09T12:05:27;23.60;99.90
18823;DHT22;9540;51.550;7.980;2022-07-09T12:07:56;23.70;99.90
18823;DHT22;9540;51.550;7.980;2022-07-09T12:10:31;23.60;99.90
18823;DHT22;9540;51.550;7.980;2022-07-09T12:12:59;23.40;99.90
18823;DHT22;9540;51.550;7.980;2022-07-09T12:15:28;23.30;99.90
18823;DHT22;9540;51.550;7.980;2022-07-09T12:17:56;23.10;99.90
18823;DHT22;9540;51.550;7.980;2022-07-09T12:20:25;23.00;99.90
18823;DHT22;9540;51.550;7.980;2022-07-09T12:22:53;23.00;99.90
18823;DHT22;9540;51.550;7.980;2022-07-09T12:25:21;22.90;99.90
18823;DHT22;9540;51.550;7.980;2022-07-09T12:27:48;22.80;99.90
18823;DHT22;9540;51.550;7.980;2022-07-09T12:30:16;22.60;99.90
18823;DHT22;9540;51.550;7.980;2022-07-09T12:32:44;22.40;99.90
18823;DHT22;9540;51.550;7.980;2022-07-09T12:35:12;22.20;99.90
18823;DHT22;9540;51.550;7.980;2022-07-09T12:37:40;21.60;99.90
18823;DHT22;9540;51.550;7.980;2022-07-09T12:40:08;20.70;99.90
18823;DHT22;9540;51.550;7.980;2022-07-09T12:42:36;19.70;99.90
18823;DHT22;9540;51.550;7.980;2022-07-09T12:45:04;18.90;99.90
18823;DHT22;9540;51.550;7.980;2022-07-09T12:47:31;18.30;99.90
18823;DHT22;9540;51.550;7.980;2022-07-09T12:50:00;17.80;99.90
18823;DHT22;9540;51.550;7.980;2022-07-09T12:52:30;17.60;99.90
18823;DHT22;9540;51.550;7.980;2022-07-09T12:54:58;17.30;99.90
18823;DHT22;9540;51.550;7.980;2022-07-09T12:57:25;17.10;99.90
18823;DHT22;9540;51.550;7.980;2022-07-09T12:59:53;16.90;99.90
18823;DHT22;9540;51.550;7.980;2022-07-09T13:02:20;16.80;99.90
18823;DHT22;9540;51.550;7.980;2022-07-09T13:04:47;16.70;99.90
18823;DHT22;9540;51.550;7.980;2022-07-09T13:07:15;16.80;99.90
18823;DHT22;9540;51.550;7.980;2022-07-09T13:09:42;17.00;99.90
18823;DHT22;9540;51.550;7.980;2022-07-09T13:12:09;17.20;99.90
18823;DHT22;9540;51.550;7.980;2022-07-09T13:14:36;17.50;99.90
18823;DHT22;9540;51.550;7.980;2022-07-09T13:17:03;17.70;99.90
18823;DHT22;9540;51.550;7.980;2022-07-09T13:19:30;17.90;99.90
18823;DHT22;9540;51.550;7.980;2022-07-09T13:21:58;18.00;99.90
18823;DHT22;9540;51.550;7.980;2022-07-09T13:24:27;18.20;99.90
18823;DHT22;9540;51.550;7.980;2022-07-09T13:26:54;18.30;99.90
18823;DHT22;9540;51.550;7.980;2022-07-09T13:29:21;18.60;99.90
18823;DHT22;9540;51.550;7.980;2022-07-09T13:31:48;18.80;99.90
18823;DHT22;9540;51.550;7.980;2022-07-09T13:34:15;18.90;99.90
18823;DHT22;9540;51.550;7.980;2022-07-09T13:36:42;19.00;99.90
18823;DHT22;9540;51.550;7.980;2022-07-09T13:39:10;18.90;99.90
18823;DHT22;9540;51.550;7.980;2022-07-09T13:41:38;18.90;99.90
18823;DHT22;9540;51.550;7.980;2022-07-09T13:44:05;18.80;99.90
18823;DHT22;9540;51.550;7.980;2022-07-09T13:46:33;18.70;99.90
18823;DHT22;9540;51.550;7.980;2022-07-09T13:49:00;18.70;99.90
18823;DHT22;9540;51.550;7.980;2022-07-09T13:51:27;18.60;99.90
18823;DHT22;9540;51.550;7.980;2022-07-09T13:53:54;18.80;99.90
18823;DHT22;9540;51.550;7.980;2022-07-09T13:56:21;19.00;99.90
18823;DHT22;9540;51.550;7.980;2022-07-09T13:58:49;19.20;99.90
18823;DHT22;9540;51.550;7.980;2022-07-09T14:01:16;19.30;99.90
18823;DHT22;9540;51.550;7.980;2022-07-09T14:03:45;19.40;99.90
18823;DHT22;9540;51.550;7.980;2022-07-09T14:06:13;19.40;99.90
18823;DHT22;9540;51.550;7.980;2022-07-09T14:08:40;19.40;99.90
18823;DHT22;9540;51.550;7.980;2022-07-09T14:11:07;19.50;99.90
18823;DHT22;9540;51.550;7.980;2022-07-09T14:13:34;19.50;99.90
18823;DHT22;9540;51.550;7.980;2022-07-09T14:16:03;19.30;99.90
18823;DHT22;9540;51.550;7.980;2022-07-09T14:18:30;19.10;99.90
18823;DHT22;9540;51.550;7.980;2022-07-09T14:20:58;18.90;99.90
18823;DHT22;9540;51.550;7.980;2022-07-09T14:23:25;18.90;99.90
18823;DHT22;9540;51.550;7.980;2022-07-09T14:25:53;19.20;99.90
18823;DHT22;9540;51.550;7.980;2022-07-09T14:28:20;19.20;99.90
18823;DHT22;9540;51.550;7.980;2022-07-09T14:30:47;19.20;99.90
18823;DHT22;9540;51.550;7.980;2022-07-09T14:33:15;19.10;99.90
18823;DHT22;9540;51.550;7.980;2022-07-09T14:35:42;19.30;99.90
18823;DHT22;9540;51.550;7.980;2022-07-09T14:38:10;19.60;99.90
18823;DHT22;9540;51.550;7.980;2022-07-09T14:40:37;19.70;99.90
18823;DHT22;9540;51.550;7.980;2022-07-09T14:43:04;19.80;99.90
18823;DHT22;9540;51.550;7.980;2022-07-09T14:45:31;19.90;99.90
18823;DHT22;9540;51.550;7.980;2022-07-09T14:47:58;19.90;99.90
18823;DHT22;9540;51.550;7.980;2022-07-09T14:50:27;20.00;99.90
18823;DHT22;9540;51.550;7.980;2022-07-09T14:52:54;20.10;99.90
18823;DHT22;9540;51.550;7.980;2022-07-09T14:55:21;20.30;99.90
18823;DHT22;9540;51.550;7.980;2022-07-09T14:57:48;20.40;99.90
18823;DHT22;9540;51.550;7.980;2022-07-09T15:00:15;20.50;99.90
18823;DHT22;9540;51.550;7.980;2022-07-09T15:02:42;20.80;99.90
18823;DHT22;9540;51.550;7.980;2022-07-09T15:05:10;20.90;99.90
18823;DHT22;9540;51.550;7.980;2022-07-09T15:07:38;21.10;99.90
18823;DHT22;9540;51.550;7.980;2022-07-09T15:10:06;21.20;99.90
18823;DHT22;9540;51.550;7.980;2022-07-09T15:12:33;21.20;99.90
18823;DHT22;9540;51.550;7.980;2022-07-09T15:15:00;21.10;99.90
18823;DHT22;9540;51.550;7.980;2022-07-09T15:17:27;21.00;99.90
18823;DHT22;9540;51.550;7.980;2022-07-09T15:19:54;21.20;99.90
18823;DHT22;9540;51.550;7.980;2022-07-09T15:22:21;21.60;99.90
18823;DHT22;9540;51.550;7.980;2022-07-09T15:24:50;21.70;99.90
18823;DHT22;9540;51.550;7.980;2022-07-09T15:27:17;21.90;99.90
18823;DHT22;9540;51.550;7.980;2022-07-09T15:29:44;22.10;99.90
18823;DHT22;9540;51.550;7.980;2022-07-09T15:32:12;22.20;99.90
18823;DHT22;9540;51.550;7.980;2022-07-09T15:34:40;22.40;99.90
18823;DHT22;9540;51.550;7.980;2022-07-09T15:37:10;22.40;99.90
18823;DHT22;9540;51.550;7.980;2022-07-09T15:39:37;22.50;99.90
18823;DHT22;9540;51.550;7.980;2022-07-09T15:42:06;22.80;99.90
18823;DHT22;9540;51.550;7.980;2022-07-09T15:44:34;22.90;99.90
18823;DHT22;9540;51.550;7.980;2022-07-09T15:47:01;23.20;99.90
18823;DHT22;9540;51.550;7.980;2022-07-09T15:49:28;23.40;99.90